createdAt,value
2018-04-20T00:01:13.253Z,42.97
2018-04-20T00:03:41.660Z,40.90
2018-04-20T00:06:10.816Z,50.03
2018-04-20T00:08:39.240Z,41.90
2018-04-20T00:11:08.400Z,45.53
2018-04-20T00:13:36.832Z,48.43
2018-04-20T00:16:05.285Z,45.63
2018-04-20T00:18:34.069Z,47.20
2018-04-20T00:21:02.444Z,49.47
2018-04-20T00:23:30.878Z,42.47
2018-04-20T00:25:59.277Z,44.93
2018-04-20T00:28:27.655Z,44.70
2018-04-20T00:30:56.080Z,38.50
2018-04-20T00:33:25.189Z,39.07
2018-04-20T00:35:53.556Z,44.53
2018-04-20T00:38:23.142Z,45.73
2018-04-20T00:40:51.554Z,42.60
2018-04-20T00:43:19.924Z,48.70
2018-04-20T00:45:48.312Z,51.47
2018-04-20T00:48:16.688Z,49.27
2018-04-20T00:50:45.028Z,52.83
2018-04-20T00:53:13.449Z,49.40
2018-04-20T00:55:41.816Z,45.20
2018-04-20T00:58:10.195Z,49.17
2018-04-20T01:00:38.619Z,49.03
2018-04-20T01:03:07.009Z,54.93
2018-04-20T01:05:35.467Z,51.47
2018-04-20T01:08:03.893Z,53.90
2018-04-20T01:10:33.061Z,55.93
2018-04-20T01:13:01.812Z,61.90
2018-04-20T01:15:30.237Z,52.97
2018-04-20T01:17:58.636Z,59.50
2018-04-20T01:20:27.864Z,62.50
2018-04-20T01:22:56.238Z,55.37
2018-04-20T01:25:24.608Z,51.67
2018-04-20T01:27:53.015Z,60.63
2018-04-20T01:30:21.409Z,53.53
2018-04-20T01:32:49.828Z,50.33
2018-04-20T01:35:18.248Z,58.47
2018-04-20T01:37:46.662Z,74.10
2018-04-20T01:40:15.835Z,60.80
2018-04-20T01:42:44.225Z,60.03
2018-04-20T01:45:12.606Z,71.67
2018-04-20T01:47:40.943Z,74.53
2018-04-20T01:50:09.693Z,73.40
2018-04-20T01:52:38.856Z,71.77
2018-04-20T01:55:07.250Z,69.10
2018-04-20T01:57:35.608Z,62.73
2018-04-20T02:00:04.037Z,63.33
2018-04-20T02:02:33.217Z,63.37
2018-04-20T02:05:02.396Z,59.10
2018-04-20T02:07:30.792Z,58.63
2018-04-20T02:09:59.925Z,56.37
2018-04-20T02:12:28.363Z,63.17
2018-04-20T02:14:56.753Z,58.03
2018-04-20T02:17:25.860Z,57.30
2018-04-20T02:19:54.379Z,65.37
2018-04-20T02:22:22.776Z,55.33
2018-04-20T02:24:51.144Z,61.27
2018-04-20T02:27:19.532Z,65.93
2018-04-20T02:29:47.933Z,67.63
2018-04-20T02:32:16.366Z,68.13
2018-04-20T02:34:44.745Z,69.57
2018-04-20T02:37:13.117Z,65.50
2018-04-20T02:39:41.517Z,75.67
2018-04-20T02:42:09.908Z,74.93
2018-04-20T02:44:38.344Z,76.10
2018-04-20T02:47:06.896Z,81.70
2018-04-20T02:49:36.037Z,75.37
2018-04-20T02:52:04.462Z,77.37
2018-04-20T02:54:32.917Z,71.53
2018-04-20T02:57:01.316Z,68.80
2018-04-20T02:59:29.653Z,82.63
2018-04-20T03:01:58.054Z,73.47
2018-04-20T03:04:26.453Z,73.17
2018-04-20T03:06:55.646Z,64.60
2018-04-20T03:09:24.085Z,70.70
2018-04-20T03:11:52.477Z,69.27
2018-04-20T03:14:20.882Z,69.23
2018-04-20T03:16:49.297Z,65.03
2018-04-20T03:19:17.696Z,71.53
2018-04-20T03:21:46.150Z,68.93
2018-04-20T03:24:14.817Z,69.77
2018-04-20T03:26:43.944Z,77.10
2018-04-20T03:29:13.099Z,69.77
2018-04-20T03:31:41.479Z,58.90
2018-04-20T03:34:10.612Z,62.47
2018-04-20T03:36:38.956Z,55.80
2018-04-20T03:39:08.142Z,62.63
2018-04-20T03:41:36.512Z,64.23
2018-04-20T03:44:05.032Z,76.83
2018-04-20T03:46:33.412Z,71.07
2018-04-20T03:49:01.774Z,71.63
2018-04-20T03:51:31.209Z,66.47
2018-04-20T03:53:59.591Z,62.33
2018-04-20T03:56:27.980Z,62.13
2018-04-20T03:58:56.371Z,51.47
2018-04-20T04:01:24.742Z,61.13
2018-04-20T04:03:53.109Z,48.53
2018-04-20T04:06:21.491Z,52.87
2018-04-20T04:08:49.883Z,57.33
2018-04-20T04:11:18.345Z,47.60
2018-04-20T04:13:46.732Z,57.97
2018-04-20T04:16:27.103Z,62.93
2018-04-20T04:19:07.412Z,56.47
2018-04-20T04:21:47.639Z,50.83
2018-04-20T04:24:27.864Z,57.40
2018-04-20T04:29:56.188Z,62.53
2018-04-20T04:32:24.571Z,53.43
2018-04-20T04:34:53.724Z,47.53
2018-04-20T04:37:22.139Z,51.33
2018-04-20T04:39:50.548Z,57.13
2018-04-20T04:42:18.993Z,56.67
2018-04-20T04:44:47.380Z,61.00
2018-04-20T04:47:15.703Z,57.40
2018-04-20T04:49:44.107Z,53.17
2018-04-20T04:52:12.452Z,59.20
2018-04-20T04:54:40.839Z,64.43
2018-04-20T04:57:09.190Z,53.57
2018-04-20T04:59:38.359Z,52.00
2018-04-20T05:02:06.762Z,43.97
2018-04-20T05:04:35.864Z,51.07
2018-04-20T05:07:04.212Z,51.83
2018-04-20T05:09:33.072Z,56.60
2018-04-20T05:12:01.478Z,50.37
2018-04-20T05:14:29.836Z,50.70
2018-04-20T05:16:58.245Z,49.27
2018-04-20T05:19:27.453Z,41.70
2018-04-20T05:21:55.858Z,47.37
2018-04-20T05:24:24.244Z,41.70
2018-04-20T05:26:52.631Z,45.97
2018-04-20T05:29:21.030Z,40.33
2018-04-20T05:31:49.394Z,38.77
2018-04-20T05:34:17.810Z,39.00
2018-04-20T05:36:46.988Z,36.63
2018-04-20T05:39:15.395Z,30.70
2018-04-20T05:41:44.696Z,31.93
2018-04-20T05:44:13.871Z,31.93
2018-04-20T05:46:42.271Z,30.73
2018-04-20T05:49:11.479Z,29.20
2018-04-20T05:51:39.884Z,26.07
2018-04-20T05:54:08.282Z,29.93
2018-04-20T05:56:36.699Z,25.73
2018-04-20T05:59:06.224Z,28.20
2018-04-20T06:01:40.316Z,27.60
2018-04-20T06:04:09.515Z,25.87
2018-04-20T06:06:38.649Z,21.97
2018-04-20T06:09:11.900Z,22.87
2018-04-20T06:11:41.104Z,19.50
2018-04-20T06:14:09.524Z,21.53
2018-04-20T06:16:37.932Z,20.70
2018-04-20T06:19:06.408Z,20.03
2018-04-20T06:21:34.832Z,15.63
2018-04-20T06:24:03.209Z,19.23
2018-04-20T06:26:31.597Z,16.67
2018-04-20T06:29:00.032Z,18.90
2018-04-20T06:31:28.513Z,17.73
2018-04-20T06:33:56.879Z,15.37
2018-04-20T06:36:25.249Z,15.33
2018-04-20T06:38:53.642Z,13.73
2018-04-20T06:41:21.967Z,17.17
2018-04-20T06:43:50.487Z,13.47
2018-04-20T06:46:18.870Z,13.13
2018-04-20T06:48:47.202Z,13.30
2018-04-20T06:51:15.620Z,13.17
2018-04-20T06:53:44.028Z,13.93
2018-04-20T06:56:13.153Z,12.90
2018-04-20T06:58:41.674Z,14.77
2018-04-20T07:01:10.037Z,14.90
2018-04-20T07:03:38.428Z,13.70
2018-04-20T07:06:06.844Z,13.00
2018-04-20T07:08:35.988Z,12.47
2018-04-20T07:11:04.373Z,13.27
2018-04-20T07:13:32.879Z,12.87
2018-04-20T07:16:01.312Z,12.93
2018-04-20T07:18:30.969Z,12.37
2018-04-20T07:20:59.734Z,10.50
2018-04-20T07:23:28.187Z,12.20
2018-04-20T07:25:56.600Z,11.30
2018-04-20T07:28:25.133Z,10.53
2018-04-20T07:30:53.514Z,10.87
2018-04-20T07:33:21.931Z,10.90
2018-04-20T07:35:50.284Z,10.97
2018-04-20T07:38:18.678Z,11.37
2018-04-20T07:40:47.323Z,10.50
2018-04-20T07:43:15.704Z,12.07
2018-04-20T07:45:45.460Z,9.07
2018-04-20T07:48:13.803Z,11.63
2018-04-20T07:50:42.240Z,10.80
2018-04-20T07:53:11.583Z,10.13
2018-04-20T07:55:39.968Z,9.03
2018-04-20T07:58:08.344Z,8.70
2018-04-20T08:00:36.691Z,9.20
2018-04-20T08:03:05.794Z,8.23
2018-04-20T08:05:34.901Z,8.47
2018-04-20T08:08:03.395Z,7.33
2018-04-20T08:10:31.786Z,6.20
2018-04-20T08:13:00.213Z,6.57
2018-04-20T08:15:29.321Z,8.30
2018-04-20T08:17:58.462Z,6.53
2018-04-20T08:20:27.047Z,8.23
2018-04-20T08:22:55.367Z,9.57
2018-04-20T08:25:24.506Z,8.43
2018-04-20T08:27:53.276Z,8.90
2018-04-20T08:30:21.587Z,7.07
2018-04-20T08:35:25.055Z,8.20
2018-04-20T08:37:53.550Z,7.73
2018-04-20T08:40:22.036Z,8.63
2018-04-20T08:42:50.398Z,9.37
2018-04-20T08:45:19.463Z,6.27
2018-04-20T08:47:49.131Z,8.00
2018-04-20T08:50:17.507Z,7.37
2018-04-20T08:52:45.883Z,6.70
2018-04-20T08:55:14.254Z,7.20
2018-04-20T08:57:42.702Z,9.80
2018-04-20T09:00:11.853Z,7.90
2018-04-20T09:02:40.237Z,7.63
2018-04-20T09:05:08.620Z,10.07
2018-04-20T09:07:37.020Z,9.73
2018-04-20T09:10:06.237Z,10.03
2018-04-20T09:12:34.590Z,9.67
2018-04-20T09:15:03.972Z,9.43
2018-04-20T09:17:33.429Z,10.63
2018-04-20T09:20:02.310Z,10.80
2018-04-20T09:22:30.726Z,11.43
2018-04-20T09:25:00.672Z,10.83
2018-04-20T09:27:30.957Z,8.43
2018-04-20T09:30:00.815Z,10.47
2018-04-20T09:32:31.698Z,11.37
2018-04-20T09:35:01.215Z,11.40
2018-04-20T09:37:29.623Z,12.07
2018-04-20T09:39:58.994Z,9.60
2018-04-20T09:42:27.657Z,10.43
2018-04-20T09:44:55.984Z,12.83
2018-04-20T09:47:25.400Z,11.77
2018-04-20T09:49:54.511Z,12.70
2018-04-20T09:52:23.681Z,12.77
2018-04-20T09:54:52.391Z,11.33
2018-04-20T09:57:20.748Z,12.60
2018-04-20T09:59:49.132Z,12.23
2018-04-20T10:02:18.328Z,12.13
2018-04-20T10:04:50.291Z,11.73
2018-04-20T10:07:19.520Z,14.37
2018-04-20T10:09:47.922Z,16.60
2018-04-20T10:12:16.311Z,16.50
2018-04-20T10:14:44.831Z,15.87
2018-04-20T10:17:14.002Z,15.73
2018-04-20T10:19:42.364Z,17.17
2018-04-20T10:22:10.788Z,20.03
2018-04-20T10:24:39.184Z,18.90
2018-04-20T10:27:07.634Z,14.90
2018-04-20T10:29:36.742Z,14.93
2018-04-20T10:32:05.915Z,18.27
2018-04-20T10:34:34.358Z,15.57
2018-04-20T10:37:02.711Z,15.37
2018-04-20T10:39:31.428Z,15.50
2018-04-20T10:41:59.816Z,15.53
2018-04-20T10:44:28.188Z,13.23
2018-04-20T10:46:56.578Z,13.47
2018-04-20T10:49:24.963Z,13.80
2018-04-20T10:51:53.509Z,14.77
2018-04-20T10:54:21.886Z,12.87
2018-04-20T10:56:50.603Z,15.27
2018-04-20T10:59:18.955Z,13.17
2018-04-20T11:01:47.354Z,13.43
2018-04-20T11:04:15.793Z,12.57
2018-04-20T11:06:44.228Z,11.00
2018-04-20T11:09:12.771Z,15.33
2018-04-20T11:11:41.185Z,13.20
2018-04-20T11:14:09.903Z,10.50
2018-04-20T11:16:38.467Z,11.32
2018-04-20T11:19:06.864Z,9.87
2018-04-20T11:21:36.053Z,10.37
2018-04-20T11:24:05.199Z,9.97
2018-04-20T11:26:33.604Z,10.57
2018-04-20T11:29:01.988Z,13.07
2018-04-20T11:31:30.392Z,9.23
2018-04-20T11:33:59.513Z,9.70
2018-04-20T11:36:28.097Z,8.93
2018-04-20T11:38:56.407Z,11.18
2018-04-20T11:41:24.729Z,9.40
2018-04-20T11:43:53.526Z,11.07
2018-04-20T11:46:21.852Z,10.02
2018-04-20T11:48:50.237Z,8.90
2018-04-20T11:51:18.655Z,9.00
2018-04-20T11:53:47.045Z,9.63
2018-04-20T11:56:15.493Z,8.07
2018-04-20T11:58:44.650Z,8.90
2018-04-20T12:01:13.105Z,12.23
2018-04-20T12:03:42.204Z,8.80
2018-04-20T12:06:10.586Z,7.93
2018-04-20T12:08:38.997Z,8.93
2018-04-20T12:11:07.380Z,10.48
2018-04-20T12:13:35.766Z,8.02
2018-04-20T12:16:04.151Z,9.13
2018-04-20T12:18:33.372Z,7.47
2018-04-20T12:21:01.687Z,8.73
2018-04-20T12:23:30.043Z,9.25
2018-04-20T12:25:58.414Z,9.52
2018-04-20T12:28:26.796Z,10.38
2018-04-20T12:30:55.271Z,11.43
2018-04-20T12:33:23.938Z,10.43
2018-04-20T12:35:52.283Z,9.23
2018-04-20T12:38:20.900Z,9.00
2018-04-20T12:40:49.685Z,9.60
2018-04-20T12:43:18.775Z,9.27
2018-04-20T12:45:47.945Z,9.43
2018-04-20T12:48:16.673Z,8.97
2018-04-20T12:50:45.036Z,11.63
2018-04-20T12:53:13.425Z,11.07
2018-04-20T12:55:42.500Z,8.93
2018-04-20T12:58:12.187Z,8.93
2018-04-20T13:00:40.660Z,9.82
2018-04-20T13:03:09.076Z,10.45
2018-04-20T13:05:38.236Z,10.38
2018-04-20T13:08:06.980Z,12.98
2018-04-20T13:10:35.355Z,9.75
2018-04-20T13:13:03.795Z,13.27
2018-04-20T13:15:32.199Z,11.70
2018-04-20T13:18:02.438Z,7.85
2018-04-20T13:20:30.900Z,10.23
2018-04-20T13:23:00.052Z,10.07
2018-04-20T13:25:28.381Z,12.93
2018-04-20T13:27:56.944Z,16.92
2018-04-20T13:30:26.143Z,10.70
2018-04-20T13:32:55.697Z,9.65
2018-04-20T13:35:24.085Z,11.32
2018-04-20T13:37:53.390Z,10.90
2018-04-20T13:40:21.900Z,10.88
2018-04-20T13:42:51.502Z,10.02
2018-04-20T13:45:19.919Z,9.32
2018-04-20T13:47:48.268Z,9.23
2018-04-20T13:50:18.007Z,10.07
2018-04-20T13:52:46.367Z,11.00
2018-04-20T13:55:15.456Z,9.65
2018-04-20T13:57:44.627Z,11.40
2018-04-20T14:00:13.344Z,10.48
2018-04-20T14:02:42.429Z,9.25
2018-04-20T14:05:11.593Z,9.85
2018-04-20T14:07:40.046Z,8.52
2018-04-20T14:10:08.507Z,8.00
2018-04-20T14:12:37.435Z,9.00
2018-04-20T14:15:05.784Z,9.30
2018-04-20T14:17:34.105Z,8.15
2018-04-20T14:20:02.563Z,8.10
2018-04-20T14:22:31.351Z,9.57
2018-04-20T14:24:59.671Z,8.38
2018-04-20T14:27:28.834Z,10.75
2018-04-20T14:29:57.244Z,9.93
2018-04-20T14:32:26.397Z,7.75
2018-04-20T14:34:54.802Z,9.63
2018-04-20T14:37:23.324Z,9.55
2018-04-20T14:39:51.642Z,7.03
2018-04-20T14:42:19.959Z,8.13
2018-04-20T14:44:49.114Z,6.93
2018-04-20T14:47:17.454Z,8.65
2018-04-20T14:49:46.882Z,8.27
2018-04-20T14:52:15.284Z,8.23
2018-04-20T14:54:43.663Z,9.20
2018-04-20T14:57:12.355Z,9.18
2018-04-20T14:59:40.707Z,10.27
2018-04-20T15:02:09.060Z,10.13
2018-04-20T15:04:37.439Z,10.93
2018-04-20T15:07:05.825Z,12.82
2018-04-20T15:09:34.351Z,8.40
2018-04-20T15:12:02.749Z,11.20
2018-04-20T15:14:31.895Z,9.50
2018-04-20T15:17:00.278Z,8.73
2018-04-20T15:19:28.661Z,9.05
2018-04-20T15:21:57.063Z,9.40
2018-04-20T15:24:25.590Z,13.05
2018-04-20T15:26:54.004Z,10.18
2018-04-20T15:29:22.417Z,9.13
2018-04-20T15:31:51.556Z,8.55
2018-04-20T15:34:20.072Z,10.00
2018-04-20T15:36:48.631Z,6.57
2018-04-20T15:39:16.950Z,6.65
2018-04-20T15:41:46.094Z,10.45
2018-04-20T15:44:14.467Z,9.07
2018-04-20T15:46:42.874Z,8.93
2018-04-20T15:49:11.257Z,7.28
2018-04-20T15:51:39.785Z,8.88
2018-04-20T15:54:08.165Z,9.00
2018-04-20T15:56:36.494Z,7.15
2018-04-20T15:59:04.947Z,7.40
2018-04-20T16:01:33.277Z,8.80
2018-04-20T16:04:01.607Z,7.07
2018-04-20T16:06:29.985Z,10.57
2018-04-20T16:08:58.382Z,6.93
2018-04-20T16:11:26.775Z,8.75
2018-04-20T16:13:55.099Z,10.68
2018-04-20T16:16:23.617Z,8.73
2018-04-20T16:18:52.001Z,8.63
2018-04-20T16:21:20.377Z,9.32
2018-04-20T16:23:48.758Z,6.57
2018-04-20T16:26:17.127Z,10.07
2018-04-20T16:28:45.519Z,8.98
2018-04-20T16:31:13.985Z,8.90
2018-04-20T16:33:42.303Z,7.43
2018-04-20T16:36:10.679Z,8.88
2018-04-20T16:38:39.544Z,6.45
2018-04-20T16:41:07.895Z,6.40
2018-04-20T16:43:36.270Z,8.88
2018-04-20T16:46:04.671Z,6.57
2018-04-20T16:48:33.082Z,9.27
2018-04-20T16:51:01.438Z,7.78
2018-04-20T16:53:30.596Z,8.70
2018-04-20T16:55:59.001Z,6.72
2018-04-20T16:58:27.395Z,9.82
2018-04-20T17:00:56.622Z,11.82
2018-04-20T17:03:24.995Z,9.07
2018-04-20T17:05:53.319Z,7.12
2018-04-20T17:08:21.772Z,8.02
2018-04-20T17:10:50.169Z,6.62
2018-04-20T17:13:18.551Z,8.93
2018-04-20T17:15:46.988Z,10.30
2018-04-20T17:18:15.346Z,7.67
2018-04-20T17:20:43.711Z,11.50
2018-04-20T17:23:12.118Z,10.30
2018-04-20T17:25:40.479Z,13.17
2018-04-20T17:28:09.625Z,9.60
2018-04-20T17:30:38.056Z,11.47
2018-04-20T17:33:07.216Z,8.60
2018-04-20T17:35:35.547Z,9.07
2018-04-20T17:38:03.935Z,12.50
2018-04-20T17:40:32.334Z,6.80
2018-04-20T17:43:00.770Z,8.93
2018-04-20T17:45:29.926Z,7.53
2018-04-20T17:47:58.314Z,6.17
2018-04-20T17:50:26.712Z,4.93
2018-04-20T17:52:55.856Z,5.30
2018-04-20T17:55:24.238Z,7.67
2018-04-20T17:57:52.623Z,5.20
2018-04-20T18:00:21.111Z,9.00
2018-04-20T18:02:49.491Z,5.67
2018-04-20T18:05:17.853Z,6.57
2018-04-20T18:07:47.051Z,5.80
2018-04-20T18:10:15.433Z,6.70
2018-04-20T18:12:43.787Z,7.70
2018-04-20T18:15:12.187Z,5.23
2018-04-20T18:17:40.990Z,7.07
2018-04-20T18:20:09.339Z,6.03
2018-04-20T18:22:37.732Z,5.17
2018-04-20T18:25:06.389Z,5.60
2018-04-20T18:27:34.783Z,6.30
2018-04-20T18:30:03.244Z,6.03
2018-04-20T18:32:31.568Z,5.63
2018-04-20T18:34:59.942Z,5.77
2018-04-20T18:37:28.334Z,5.27
2018-04-20T18:39:56.714Z,7.13
2018-04-20T18:42:25.197Z,7.10
2018-04-20T18:47:31.423Z,8.03
2018-04-20T18:50:00.275Z,12.87
2018-04-20T18:52:29.375Z,13.20
2018-04-20T18:54:58.522Z,10.20
2018-04-20T18:57:26.968Z,9.33
2018-04-20T18:59:55.320Z,10.53
2018-04-20T19:02:24.440Z,10.57
2018-04-20T19:04:52.824Z,9.30
2018-04-20T19:07:21.181Z,11.40
2018-04-20T19:09:50.370Z,11.80
2018-04-20T19:12:19.524Z,11.53
2018-04-20T19:14:47.966Z,13.67
2018-04-20T19:17:16.292Z,12.33
2018-04-20T19:19:44.676Z,10.27
2018-04-20T19:22:13.122Z,9.27
2018-04-20T19:24:41.504Z,12.20
2018-04-20T19:27:09.909Z,11.33
2018-04-20T19:29:38.915Z,9.77
2018-04-20T19:32:07.258Z,12.00
2018-04-20T19:34:35.772Z,12.07
2018-04-20T19:37:04.165Z,12.33
2018-04-20T19:39:33.284Z,9.27
2018-04-20T19:42:01.728Z,8.70
2018-04-20T19:44:30.083Z,9.73
2018-04-20T19:46:58.464Z,10.30
2018-04-20T19:49:26.867Z,9.47
2018-04-20T19:51:55.223Z,13.27
2018-04-20T19:54:23.681Z,11.30
2018-04-20T19:56:52.067Z,10.97
2018-04-20T19:59:20.483Z,14.70
2018-04-20T20:01:49.263Z,16.77
2018-04-20T20:04:17.619Z,21.03
2018-04-20T20:06:46.006Z,21.47
2018-04-20T20:09:14.422Z,18.90
2018-04-20T20:11:43.551Z,21.93
2018-04-20T20:14:11.907Z,22.57
2018-04-20T20:16:40.271Z,21.07
2018-04-20T20:19:09.443Z,24.33
2018-04-20T20:21:37.798Z,24.60
2018-04-20T20:24:06.146Z,22.20
2018-04-20T20:26:34.663Z,23.97
2018-04-20T20:29:03.823Z,27.23
2018-04-20T20:31:32.147Z,27.47
2018-04-20T20:34:00.561Z,27.20
2018-04-20T20:36:28.980Z,25.20
2018-04-20T20:38:57.361Z,28.70
2018-04-20T20:41:25.752Z,26.17
2018-04-20T20:43:54.201Z,29.50
2018-04-20T20:46:22.583Z,31.47
2018-04-20T20:48:50.971Z,25.73
2018-04-20T20:51:19.402Z,26.93
2018-04-20T20:53:48.564Z,26.50
2018-04-20T20:56:16.947Z,21.77
2018-04-20T20:58:45.333Z,25.40
2018-04-20T21:01:13.694Z,29.20
2018-04-20T21:03:42.103Z,27.70
2018-04-20T21:06:11.257Z,26.77
2018-04-20T21:08:39.703Z,22.73
2018-04-20T21:11:08.074Z,23.43
2018-04-20T21:13:36.455Z,30.90
2018-04-20T21:16:04.815Z,27.13
2018-04-20T21:18:33.947Z,28.03
2018-04-20T21:21:02.384Z,26.00
2018-04-20T21:23:31.656Z,27.07
2018-04-20T21:26:00.051Z,25.10
2018-04-20T21:28:28.387Z,24.30
2018-04-20T21:30:56.834Z,27.97
2018-04-20T21:33:25.246Z,25.27
2018-04-20T21:35:53.617Z,25.40
2018-04-20T21:38:21.971Z,27.03
2018-04-20T21:40:50.356Z,24.80
2018-04-20T21:43:18.768Z,30.03
2018-04-20T21:45:47.160Z,27.93
2018-04-20T21:48:15.627Z,23.53
2018-04-20T21:50:44.031Z,31.03
2018-04-20T21:53:12.395Z,27.57
2018-04-20T21:55:40.855Z,24.87
2018-04-20T21:58:09.648Z,27.90
2018-04-20T22:00:38.169Z,26.93
2018-04-20T22:03:07.333Z,27.23
2018-04-20T22:05:35.707Z,28.03
2018-04-20T22:08:04.123Z,26.17
2018-04-20T22:10:33.233Z,24.27
2018-04-20T22:13:01.589Z,29.93
2018-04-20T22:15:29.979Z,23.63
2018-04-20T22:17:59.262Z,25.90
2018-04-20T22:20:27.600Z,28.47
2018-04-20T22:22:55.964Z,32.20
2018-04-20T22:25:24.380Z,28.97
2018-04-20T22:27:52.772Z,26.53
2018-04-20T22:30:21.208Z,26.60
2018-04-20T22:32:49.603Z,30.40
2018-04-20T22:35:17.991Z,32.50
2018-04-20T22:37:46.409Z,31.47
2018-04-20T22:40:15.542Z,31.30
2018-04-20T22:42:43.896Z,34.70
2018-04-20T22:45:12.287Z,29.50
2018-04-20T22:47:40.710Z,32.90
2018-04-20T22:50:09.171Z,31.63
2018-04-20T22:52:37.520Z,33.60
2018-04-20T22:55:05.941Z,35.70
2018-04-20T22:57:34.403Z,38.83
2018-04-20T23:00:02.735Z,36.87
2018-04-20T23:02:31.912Z,38.00
2018-04-20T23:05:01.118Z,35.17
2018-04-20T23:07:30.215Z,35.70
2018-04-20T23:09:59.348Z,30.77
2018-04-20T23:12:28.168Z,34.20
2018-04-20T23:14:56.556Z,32.00
2018-04-20T23:17:24.952Z,38.83
2018-04-20T23:19:54.127Z,35.20
2018-04-20T23:22:22.558Z,35.90
2018-04-20T23:24:50.899Z,39.50
2018-04-20T23:27:19.310Z,39.27
2018-04-20T23:29:47.723Z,41.17
2018-04-20T23:32:16.087Z,43.13
2018-04-20T23:34:44.603Z,41.40
2018-04-20T23:37:12.999Z,40.93
2018-04-20T23:39:42.152Z,39.10
2018-04-20T23:42:10.580Z,40.63
2018-04-20T23:44:39.712Z,44.00
2018-04-20T23:47:08.125Z,40.40
2018-04-20T23:49:36.543Z,45.20
2018-04-20T23:52:04.944Z,43.60
2018-04-20T23:54:33.355Z,42.37
2018-04-20T23:57:01.738Z,40.20
2018-04-20T23:59:30.261Z,43.80
